Aviation Digital Data Service (ADDS)

Output produced by METARs form (1838 UTC 18 June 2019)
found at http://www.aviationweather.gov/metar/data/
 
MHSC 181758Z 01009KT 9999 FEW190 33/19 A2998 RMK AO2A SLPNO 10281 20201 PWINO PNO VISNO RWY35 $
TAF MHSC 1813/1919 VRB06KT 8000 BR SCT060 QNH2996INS 
     BECMG 1815/1816 01009KT 9999 NSW FEW060 QNH2999INS 
     BECMG 1902/1903 VRB06KT 9999 BKN050 QNH2996INS 
     BECMG 1916/1917 36009KT 9999 SCT060 QNH2994INS TX34/1820Z TN21/1911Z
       
MHLC 181800Z 03012KT 9999 FEW025TCU 33/26 Q1011 A2986 NOSIG
TAF MHLC 181625Z 1818/1918 03012KT 9999 SCT028TCU TX33/1821Z TN24/1912Z 
     PROB30 1903/1905 09005KT 8000 VCSH SCT024TCU SCT080 
     BECMG 1905/1907 00000KT 9999 NSW SCT024 SCT070 
     BECMG 1915/1917 35006KT SCT028
       
MHRO 181800Z 09020KT CAVOK 31/25 Q1013 A2992 NOSIG
TAF MHRO 181625Z 1818/1918 08018G28KT 9999 FEW025 TX31/1819Z TN27/1912Z
       
MHLM 181800Z 06004KT 9999 FEW028 35/23 Q1011 A2986 NOSIG
TAF MHLM 181625Z 1818/1918 03008KT 9999 SCT030 TX36/1821Z TN25/1912Z 
     BECMG 1901/1903 33004KT FEW026 SCT080 
     BECMG 1905/1907 22003KT 
     BECMG 1916/1918 03006KT SCT030
       
MHTG 181800Z 01004KT 9999 BKN030 27/17 Q1019 A3009 NOSIG
TAF MHTG 181625Z 1818/1918 06008KT 9999 SCT030 TX29/1821Z TN20/1912Z 
     BECMG 1908/1910 00000KT BKN026 
     BECMG 1915/1917 03006KT SCT030
       
MHTE 181800Z 02004KT 9999 SCT028TCU 32/26 Q1010 TCU SW HZ